createdAt,value
2018-04-26T00:00:45.159Z,79
2018-04-26T00:01:44.331Z,79.23
2018-04-26T00:02:43.831Z,78.94
2018-04-26T00:03:43.786Z,78.82
2018-04-26T00:04:44.346Z,79.01
2018-04-26T00:05:44.681Z,78.46
2018-04-26T00:06:44.156Z,78.54
2018-04-26T00:07:43.857Z,79.23
2018-04-26T00:08:43.943Z,80.25
2018-04-26T00:09:43.968Z,79.46
2018-04-26T00:10:43.880Z,79.73
2018-04-26T00:11:44.497Z,79.51
2018-04-26T00:12:43.933Z,80.46
2018-04-26T00:13:43.814Z,80.06
2018-04-26T00:14:44.211Z,79.83
2018-04-26T00:15:43.992Z,79.94
2018-04-26T00:16:44.122Z,79.66
2018-04-26T00:17:43.785Z,80.62
2018-04-26T00:18:44.239Z,79.75
2018-04-26T00:19:43.794Z,79.91
2018-04-26T00:20:44.147Z,79.69
2018-04-26T00:21:43.777Z,80.39
2018-04-26T00:22:43.980Z,80.18
2018-04-26T00:23:43.981Z,79.86
2018-04-26T00:24:44.791Z,79.55
2018-04-26T00:25:43.938Z,79.45
2018-04-26T00:26:43.951Z,79.44
2018-04-26T00:27:44.044Z,80.01
2018-04-26T00:28:44.311Z,79.64
2018-04-26T00:30:43.825Z,79.91
2018-04-26T00:31:43.836Z,79.83
2018-04-26T00:32:44.336Z,79.34
2018-04-26T00:33:44.552Z,79.68
2018-04-26T00:34:43.777Z,79.08
2018-04-26T00:35:44.197Z,79.49
2018-04-26T00:36:43.841Z,79.94
2018-04-26T00:37:43.836Z,79.47
2018-04-26T00:38:44.377Z,79.06
2018-04-26T00:39:43.852Z,78.56
2018-04-26T00:40:43.816Z,78.34
2018-04-26T00:41:45.115Z,78.12
2018-04-26T00:42:45.528Z,77.9
2018-04-26T00:43:44.038Z,77.4
2018-04-26T00:44:43.810Z,76.99
2018-04-26T00:45:44.006Z,77.15
2018-04-26T00:46:46.442Z,76.92
2018-04-26T00:47:45.772Z,76.94
2018-04-26T00:48:43.891Z,77.17
2018-04-26T00:49:44.040Z,76.7
2018-04-26T00:50:43.799Z,77.41
2018-04-26T00:51:44.467Z,77.21
2018-04-26T00:52:45.004Z,76.53
2018-04-26T00:53:44.270Z,77.41
2018-04-26T00:54:44.037Z,76.74
2018-04-26T00:55:43.856Z,76.51
2018-04-26T00:56:44.187Z,76.44
2018-04-26T00:57:43.973Z,76.5
2018-04-26T00:58:44.407Z,76.04
2018-04-26T00:59:44.617Z,75.98
2018-04-26T01:00:43.960Z,75.88
2018-04-26T01:01:44.635Z,75.71
2018-04-26T01:02:43.822Z,75.56
2018-04-26T01:03:45.292Z,75.52
2018-04-26T01:04:43.816Z,75.78
2018-04-26T01:05:44.453Z,75.75
2018-04-26T01:06:43.808Z,75.75
2018-04-26T01:07:44.051Z,75.77
2018-04-26T01:08:44.375Z,75.66
2018-04-26T01:09:43.830Z,75.92
2018-04-26T01:10:43.861Z,75.52
2018-04-26T01:11:50.241Z,75.83
2018-04-26T01:12:44.810Z,75.7
2018-04-26T01:13:43.897Z,75.8
2018-04-26T01:14:44.002Z,75.52
2018-04-26T01:15:43.848Z,75.52
2018-04-26T01:16:43.895Z,75.57
2018-04-26T01:17:43.990Z,75.46
2018-04-26T01:18:43.945Z,75.79
2018-04-26T01:19:44.020Z,75.87
2018-04-26T01:20:44.100Z,75.63
2018-04-26T01:21:44.158Z,75.62
2018-04-26T01:22:44.265Z,75.47
2018-04-26T01:23:44.578Z,75.2
2018-04-26T01:24:44.482Z,75.25
2018-04-26T01:25:43.927Z,75.91
2018-04-26T01:26:43.886Z,76.02
2018-04-26T01:27:43.981Z,75.69
2018-04-26T01:28:44.240Z,76
2018-04-26T01:30:01.971Z,75.54
2018-04-26T01:30:43.847Z,74.96
2018-04-26T01:31:44.631Z,74.97
2018-04-26T01:32:44.723Z,75.79
2018-04-26T01:33:44.644Z,75.28
2018-04-26T01:34:44.963Z,75.6
2018-04-26T01:35:46.922Z,74.68
2018-04-26T01:36:43.837Z,75.32
2018-04-26T01:37:43.859Z,74.85
2018-04-26T01:38:51.847Z,74.76
2018-04-26T01:39:45.201Z,75.3
2018-04-26T01:40:46.055Z,75.32
2018-04-26T01:41:43.878Z,74.89
2018-04-26T01:42:43.912Z,75.36
2018-04-26T01:43:44.613Z,74.72
2018-04-26T01:44:44.296Z,74.62
2018-04-26T01:45:45.038Z,74.6
2018-04-26T01:46:44.636Z,74.16
2018-04-26T01:47:43.930Z,74.78
2018-04-26T01:48:43.808Z,74.41
2018-04-26T01:49:43.985Z,75.02
2018-04-26T01:50:45.598Z,74.51
2018-04-26T01:51:44.157Z,74.78
2018-04-26T01:52:43.980Z,74.62
2018-04-26T01:53:44.205Z,74.53
2018-04-26T01:54:44.483Z,74.5
2018-04-26T01:55:45.441Z,75.01
2018-04-26T01:56:43.881Z,74.7
2018-04-26T01:57:43.835Z,74.82
2018-04-26T01:58:44.161Z,74.65
2018-04-26T01:59:44.415Z,74.47
2018-04-26T02:00:45.159Z,74.75
2018-04-26T02:01:46.988Z,74.42
2018-04-26T02:02:44.037Z,74.98
2018-04-26T02:03:44.243Z,74.17
2018-04-26T02:04:44.347Z,74.23
2018-04-26T02:05:44.785Z,74.53
2018-04-26T02:06:47.351Z,74.2
2018-04-26T02:07:43.850Z,74.57
2018-04-26T02:08:43.876Z,74.53
2018-04-26T02:09:43.903Z,74.57
2018-04-26T02:10:45.917Z,74.36
2018-04-26T02:11:45.314Z,74.73
2018-04-26T02:12:47.223Z,73.88
2018-04-26T02:13:44.048Z,74.2
2018-04-26T02:14:44.230Z,74.51
2018-04-26T02:15:45.009Z,74.18
2018-04-26T02:16:44.845Z,74.52
2018-04-26T02:17:43.847Z,74.45
2018-04-26T02:18:43.991Z,74.43
2018-04-26T02:19:45.269Z,74.5
2018-04-26T02:20:44.030Z,74.18
2018-04-26T02:21:43.892Z,74.21
2018-04-26T02:22:43.882Z,74.46
2018-04-26T02:23:44.226Z,74.58
2018-04-26T02:24:44.894Z,74.6
2018-04-26T02:25:44.107Z,74.35
2018-04-26T02:26:43.881Z,74.44
2018-04-26T02:27:44.025Z,74.79
2018-04-26T02:28:44.314Z,74.2
2018-04-26T02:29:44.521Z,74.22
2018-04-26T02:30:44.013Z,74.18
2018-04-26T02:31:44.074Z,74.42
2018-04-26T02:32:44.183Z,74.7
2018-04-26T02:33:44.606Z,74.69
2018-04-26T02:34:46.913Z,74.87
2018-04-26T02:35:44.253Z,74.74
2018-04-26T02:36:44.103Z,74.39
2018-04-26T02:37:44.273Z,74.22
2018-04-26T02:38:44.482Z,74.35
2018-04-26T02:39:45.717Z,74.59
2018-04-26T02:40:44.193Z,74.65
2018-04-26T02:41:44.242Z,74.96
2018-04-26T02:42:44.609Z,74.32
2018-04-26T02:43:44.515Z,74.4
2018-04-26T02:44:44.339Z,74
2018-04-26T02:45:57.456Z,74.27
2018-04-26T02:46:43.847Z,74.29
2018-04-26T02:47:44.053Z,74.03
2018-04-26T02:48:43.990Z,73.55
2018-04-26T02:49:45.066Z,73.21
2018-04-26T02:50:44.255Z,73.45
2018-04-26T02:51:43.992Z,72.81
2018-04-26T02:52:43.945Z,72.8
2018-04-26T02:53:44.479Z,72.93
2018-04-26T02:54:44.388Z,72.9
2018-04-26T02:55:44.696Z,72.84
2018-04-26T02:56:44.840Z,72.83
2018-04-26T02:57:44.487Z,72.67
2018-04-26T02:58:44.359Z,73.08
2018-04-26T02:59:44.181Z,73.08
2018-04-26T03:00:46.062Z,73.21
2018-04-26T03:01:44.235Z,73.2
2018-04-26T03:02:44.356Z,72.99
2018-04-26T03:03:44.442Z,73.11
2018-04-26T03:04:45.373Z,72.44
2018-04-26T03:05:44.197Z,72.1
2018-04-26T03:06:43.995Z,72.62
2018-04-26T03:07:44.369Z,72.55
2018-04-26T03:08:45.297Z,72.25
2018-04-26T03:09:44.699Z,72.26
2018-04-26T03:10:46.031Z,72.26
2018-04-26T03:11:43.921Z,72.43
2018-04-26T03:12:44.450Z,72.3
2018-04-26T03:13:44.843Z,72.44
2018-04-26T03:14:44.521Z,72.66
2018-04-26T03:15:43.911Z,72.42
2018-04-26T03:16:44.434Z,72.74
2018-04-26T03:17:43.969Z,72.96
2018-04-26T03:18:44.647Z,72.9
2018-04-26T03:19:44.758Z,72.94
2018-04-26T03:20:44.494Z,73
2018-04-26T03:21:43.976Z,72.9
2018-04-26T03:22:43.981Z,72.64
2018-04-26T03:23:45.913Z,72.44
2018-04-26T03:24:44.330Z,72.44
2018-04-26T03:25:43.899Z,72.77
2018-04-26T03:26:44.005Z,72.75
2018-04-26T03:27:44.000Z,72.23
2018-04-26T03:28:44.411Z,71
2018-04-26T03:29:43.949Z,70.67
2018-04-26T03:30:44.634Z,70.06
2018-04-26T03:31:46.389Z,70.34
2018-04-26T03:32:43.982Z,70.28
2018-04-26T03:33:43.883Z,69.95
2018-04-26T03:34:44.759Z,69.96
2018-04-26T03:35:44.458Z,70.12
2018-04-26T03:36:44.416Z,69.31
2018-04-26T03:37:45.298Z,69.51
2018-04-26T03:38:44.375Z,69.84
2018-04-26T03:39:44.183Z,69.87
2018-04-26T03:40:43.976Z,69.63
2018-04-26T03:41:44.912Z,69.74
2018-04-26T03:42:44.411Z,69.53
2018-04-26T03:43:44.031Z,69.68
2018-04-26T03:44:43.976Z,69.56
2018-04-26T03:45:44.425Z,69.67
2018-04-26T03:46:44.432Z,69.31
2018-04-26T03:47:44.852Z,69.08
2018-04-26T03:48:44.344Z,69
2018-04-26T03:49:43.978Z,69.05
2018-04-26T03:50:44.150Z,68.3
2018-04-26T03:51:44.159Z,67.93
2018-04-26T03:52:44.561Z,68.06
2018-04-26T03:53:45.405Z,67.53
2018-04-26T03:54:44.040Z,67.49
2018-04-26T03:55:44.006Z,67.19
2018-04-26T03:56:44.231Z,67.09
2018-04-26T03:57:44.506Z,67.06
2018-04-26T03:58:44.170Z,66.46
2018-04-26T03:59:44.340Z,66.59
2018-04-26T04:00:44.325Z,66.69
2018-04-26T04:01:44.436Z,66.04
2018-04-26T04:03:05.026Z,66.24
2018-04-26T04:03:48.572Z,66.49
2018-04-26T04:04:44.456Z,66.59
2018-04-26T04:05:44.255Z,66.77
2018-04-26T04:06:44.202Z,67.2
2018-04-26T04:07:44.474Z,67.14
2018-04-26T04:08:44.090Z,67.24
2018-04-26T04:09:44.058Z,67.37
2018-04-26T04:10:44.129Z,67.63
2018-04-26T04:11:45.733Z,67.46
2018-04-26T04:12:43.910Z,67.59
2018-04-26T04:13:46.314Z,67.58
2018-04-26T04:14:53.847Z,66.79
2018-04-26T04:15:44.169Z,66.83
2018-04-26T04:16:43.972Z,66.69
2018-04-26T04:17:44.669Z,66.54
2018-04-26T04:18:44.554Z,66.24
2018-04-26T04:19:46.336Z,66.3
2018-04-26T04:20:43.930Z,65.57
2018-04-26T04:22:06.334Z,65.38
2018-04-26T04:22:44.774Z,65.22
2018-04-26T04:23:44.082Z,65.33
2018-04-26T04:24:43.975Z,65.23
2018-04-26T04:25:44.251Z,65.31
2018-04-26T04:26:44.035Z,65.23
2018-04-26T04:27:44.110Z,65.62
2018-04-26T04:28:44.519Z,65.71
2018-04-26T04:29:46.672Z,65.91
2018-04-26T04:30:44.323Z,65.7
2018-04-26T04:31:44.541Z,65.61
2018-04-26T04:32:44.847Z,65.74
2018-04-26T04:33:43.942Z,65.75
2018-04-26T04:34:44.181Z,65.95
2018-04-26T04:35:44.356Z,65.7
2018-04-26T04:36:44.020Z,65.71
2018-04-26T04:37:45.491Z,66.22
2018-04-26T04:38:43.888Z,66.22
2018-04-26T04:39:43.982Z,66.51
2018-04-26T04:40:44.405Z,66.1
2018-04-26T04:41:44.499Z,66.05
2018-04-26T04:42:45.566Z,66.37
2018-04-26T04:43:45.748Z,66.44
2018-04-26T04:44:43.913Z,66.4
2018-04-26T04:45:44.836Z,66.68
2018-04-26T04:46:44.065Z,66.7
2018-04-26T04:48:02.277Z,66.68
2018-04-26T04:48:45.065Z,66.87
2018-04-26T04:49:49.779Z,66.97
2018-04-26T04:50:44.466Z,66.98
2018-04-26T04:51:45.394Z,66.95
2018-04-26T04:52:47.133Z,66.8
2018-04-26T04:53:45.225Z,66.58
2018-04-26T04:54:44.014Z,66.49
2018-04-26T04:55:44.107Z,66.69
2018-04-26T04:56:43.979Z,66.76
2018-04-26T04:57:44.305Z,66.56
2018-04-26T04:58:48.441Z,66.94
2018-04-26T04:59:44.635Z,67.03
2018-04-26T05:00:44.162Z,66.99
2018-04-26T05:01:44.329Z,67.33
2018-04-26T05:02:44.744Z,67.29
2018-04-26T05:03:44.134Z,67.34
2018-04-26T05:04:45.476Z,67.43
2018-04-26T05:05:44.355Z,67.65
2018-04-26T05:06:44.314Z,68.16
2018-04-26T05:07:44.065Z,67.62
2018-04-26T05:08:44.018Z,67.67
2018-04-26T05:09:44.591Z,67.98
2018-04-26T05:10:44.902Z,68.13
2018-04-26T05:11:43.942Z,68.5
2018-04-26T05:12:44.053Z,68.27
2018-04-26T05:13:44.735Z,68.19
2018-04-26T05:14:47.901Z,68.21
2018-04-26T05:15:44.328Z,68.56
2018-04-26T05:16:43.930Z,68.45
2018-04-26T05:17:44.118Z,67.53
2018-04-26T05:18:44.268Z,67.4
2018-04-26T05:19:44.561Z,67.53
2018-04-26T05:20:43.916Z,67.47
2018-04-26T05:21:44.287Z,67.63
2018-04-26T05:22:44.582Z,67.42
2018-04-26T05:23:44.237Z,67.72
2018-04-26T05:24:44.799Z,67.69
2018-04-26T05:25:44.703Z,67.42
2018-04-26T05:26:44.053Z,67.6
2018-04-26T05:27:44.716Z,67.9
2018-04-26T05:28:45.026Z,67.19
2018-04-26T05:29:44.256Z,67.4
2018-04-26T05:30:45.042Z,67.6
2018-04-26T05:32:04.035Z,67.71
2018-04-26T05:32:44.238Z,67.13
2018-04-26T05:33:45.657Z,67.37
2018-04-26T05:34:44.873Z,67.11
2018-04-26T05:35:44.461Z,67.73
2018-04-26T05:36:44.007Z,67.92
2018-04-26T05:37:44.299Z,67.3
2018-04-26T05:38:44.587Z,67.58
2018-04-26T05:39:59.640Z,67.5
2018-04-26T05:40:44.392Z,67.39
2018-04-26T05:41:43.905Z,67.7
2018-04-26T05:42:44.347Z,67.35
2018-04-26T05:43:45.199Z,67.17
2018-04-26T05:44:47.474Z,67.31
2018-04-26T05:45:49.153Z,67.69
2018-04-26T05:46:44.537Z,67.36
2018-04-26T05:47:44.063Z,67.34
2018-04-26T05:48:55.734Z,67.72
2018-04-26T05:49:45.888Z,67.8
2018-04-26T05:50:44.973Z,67.79
2018-04-26T05:51:44.209Z,67.83
2018-04-26T05:52:43.980Z,67.9
2018-04-26T05:53:44.682Z,67.89
2018-04-26T05:54:44.796Z,68.12
2018-04-26T05:55:44.033Z,67.77
2018-04-26T05:56:43.948Z,67.75
2018-04-26T05:57:44.940Z,67.68
2018-04-26T05:58:43.974Z,67.96
2018-04-26T05:59:45.143Z,67.91
2018-04-26T06:00:45.563Z,68.21
2018-04-26T06:01:44.047Z,68.07
2018-04-26T06:02:43.953Z,67.91
2018-04-26T06:03:47.296Z,68.21
2018-04-26T06:04:44.680Z,67.67
2018-04-26T06:05:44.038Z,67.61
2018-04-26T06:06:44.306Z,67.7
2018-04-26T06:07:45.096Z,67.44
2018-04-26T06:08:45.610Z,67.36
2018-04-26T06:09:44.209Z,67.48
2018-04-26T06:10:44.215Z,66.59
2018-04-26T06:11:45.017Z,67.05
2018-04-26T06:12:44.458Z,67.01
2018-04-26T06:13:44.245Z,66.76
2018-04-26T06:14:44.627Z,66.77
2018-04-26T06:15:45.064Z,67.09
2018-04-26T06:16:47.715Z,66.95
2018-04-26T06:17:47.515Z,66.4
2018-04-26T06:18:44.450Z,66.44
2018-04-26T06:19:46.401Z,66.02
2018-04-26T06:20:46.862Z,65.98
2018-04-26T06:21:44.097Z,66.27
2018-04-26T06:22:44.079Z,66.58
2018-04-26T06:23:45.799Z,66.1
2018-04-26T06:24:46.128Z,66.02
2018-04-26T06:25:44.232Z,66.11
2018-04-26T06:26:44.628Z,65.94
2018-04-26T06:27:47.010Z,65.96
2018-04-26T06:28:45.441Z,65.78
2018-04-26T12:32:08.161Z,39.76
2018-04-26T12:33:08.608Z,39.05
2018-04-26T12:34:08.670Z,36.57
2018-04-26T12:35:08.250Z,37.27
2018-04-26T12:36:08.197Z,37.58
2018-04-26T12:37:08.163Z,37.35
2018-04-26T12:38:08.236Z,37.77
2018-04-26T12:39:08.163Z,36.43
2018-04-26T12:40:08.322Z,36.86
2018-04-26T12:41:08.159Z,36.88
2018-04-26T12:42:08.194Z,36.77
2018-04-26T12:43:08.176Z,36.21
2018-04-26T12:44:08.603Z,35.57
2018-04-26T12:45:08.362Z,36.54
2018-04-26T12:46:08.185Z,36.41
2018-04-26T12:47:08.187Z,36.01
2018-04-26T12:48:08.211Z,36.03
2018-04-26T12:49:08.183Z,36.38
2018-04-26T12:50:08.176Z,36.04
2018-04-26T12:51:08.183Z,36.43
2018-04-26T12:52:08.203Z,36.96
2018-04-26T12:53:08.228Z,36.86
2018-04-26T12:54:08.216Z,36.92
2018-04-26T12:55:08.162Z,37.71
2018-04-26T12:56:08.197Z,37.31
2018-04-26T12:57:08.173Z,36.92
2018-04-26T12:58:08.185Z,37.2
2018-04-26T12:59:08.195Z,36.64
2018-04-26T13:00:08.209Z,35.51
2018-04-26T13:01:08.361Z,36.4
2018-04-26T13:02:08.503Z,36.66
2018-04-26T13:03:08.203Z,36.09
2018-04-26T13:04:08.256Z,35.63
2018-04-26T13:05:08.207Z,35.07
2018-04-26T13:06:08.192Z,35.33
2018-04-26T13:07:08.402Z,35.57
2018-04-26T13:08:08.366Z,35.92
2018-04-26T13:09:08.217Z,35.97
2018-04-26T13:10:08.315Z,36.17
2018-04-26T13:11:08.208Z,36.52
2018-04-26T13:12:08.214Z,37.01
2018-04-26T13:13:08.321Z,37.09
2018-04-26T13:14:08.207Z,38.04
2018-04-26T13:15:08.232Z,37.1
2018-04-26T13:16:08.219Z,37.12
2018-04-26T13:17:08.226Z,36.99
2018-04-26T13:18:08.369Z,37.11
2018-04-26T13:19:08.277Z,37.91
2018-04-26T13:20:08.420Z,36.98
2018-04-26T13:21:08.465Z,36.53
2018-04-26T13:22:08.404Z,36.5
2018-04-26T13:23:08.225Z,36.49
2018-04-26T13:24:08.234Z,35.82
2018-04-26T13:25:08.254Z,34.85
2018-04-26T13:26:08.220Z,35.53
2018-04-26T13:27:08.539Z,35.7
2018-04-26T13:28:08.337Z,34.07
2018-04-26T13:29:08.237Z,34.52
2018-04-26T13:30:08.256Z,34.65
2018-04-26T13:31:08.403Z,33.98
2018-04-26T13:32:08.220Z,33.99
2018-04-26T13:33:08.294Z,33.91
2018-04-26T13:34:08.303Z,33.8
2018-04-26T13:35:08.221Z,32.87
2018-04-26T13:36:08.380Z,32.51
2018-04-26T13:47:49.524Z,34.37
2018-04-26T13:48:49.742Z,34.56
2018-04-26T13:49:49.759Z,34.96
2018-04-26T13:50:49.552Z,35.12
2018-04-26T13:51:49.571Z,35.06
2018-04-26T13:52:49.514Z,35.16
2018-04-26T13:53:49.529Z,35.2
2018-04-26T13:54:49.555Z,34.84
2018-04-26T13:55:49.890Z,35.17
2018-04-26T13:56:49.533Z,34.83
2018-04-26T13:57:49.530Z,34.66
2018-04-26T13:58:49.527Z,34.33
2018-04-26T13:59:49.538Z,33.7
2018-04-26T14:00:49.551Z,34
2018-04-26T14:01:49.534Z,34.19
2018-04-26T14:02:49.586Z,34.29
2018-04-26T14:03:49.536Z,35.08
2018-04-26T14:04:49.751Z,34.8
2018-04-26T14:05:49.665Z,35.24
2018-04-26T14:06:49.531Z,35.29
2018-04-26T14:07:49.554Z,35.08
2018-04-26T14:08:49.548Z,35.32
2018-04-26T14:09:49.591Z,35.55
2018-04-26T14:10:49.695Z,35.5
2018-04-26T14:11:49.565Z,35.84
2018-04-26T14:12:49.537Z,35.79
2018-04-26T14:13:49.548Z,35.27
2018-04-26T14:14:49.793Z,33.96
2018-04-26T14:15:49.800Z,34.8
2018-04-26T14:16:49.732Z,34.68
2018-04-26T14:17:49.574Z,34.22
2018-04-26T14:18:56.959Z,34.09
2018-04-26T14:19:49.753Z,34.51
2018-04-26T14:20:49.609Z,35.15
2018-04-26T14:21:49.581Z,35.08
2018-04-26T14:22:49.583Z,35.57
2018-04-26T14:23:49.595Z,34.88
2018-04-26T14:24:49.541Z,34.93
2018-04-26T14:25:49.676Z,35.13
2018-04-26T14:26:49.705Z,35.44
2018-04-26T14:27:49.555Z,36.05
2018-04-26T14:28:49.554Z,36.36
2018-04-26T14:29:49.943Z,36.4
2018-04-26T14:30:49.573Z,36.97
2018-04-26T14:31:49.670Z,35.58
2018-04-26T14:32:49.562Z,35.64
2018-04-26T14:33:49.667Z,35.61
2018-04-26T14:34:49.649Z,36.5
2018-04-26T14:35:49.596Z,36.09
2018-04-26T14:36:49.972Z,36.17
2018-04-26T14:37:49.594Z,35.68
2018-04-26T14:38:49.599Z,36.1
2018-04-26T14:39:49.579Z,35.48
2018-04-26T14:40:49.672Z,34.79
2018-04-26T14:41:49.622Z,34.83
2018-04-26T14:42:49.553Z,35.76
2018-04-26T14:43:49.576Z,34.64
2018-04-26T14:44:49.586Z,34.39
2018-04-26T14:45:49.877Z,33.96
2018-04-26T14:46:49.584Z,34.47
2018-04-26T14:47:49.570Z,34.81
2018-04-26T14:48:49.618Z,34.57
2018-04-26T14:49:49.687Z,34.61
2018-04-26T14:50:49.588Z,33.69
2018-04-26T14:51:49.607Z,33.97
2018-04-26T14:52:49.577Z,34.12
2018-04-26T14:53:49.677Z,34.76
2018-04-26T14:54:49.889Z,34.87
2018-04-26T14:55:49.591Z,34.87
2018-04-26T14:56:49.649Z,34.7
2018-04-26T14:57:49.590Z,34.83
2018-04-26T14:58:49.710Z,34.76
2018-04-26T14:59:49.928Z,35.07
2018-04-26T15:00:49.623Z,35.49
2018-04-26T15:01:49.636Z,35.69
2018-04-26T15:02:49.689Z,35.18
2018-04-26T15:03:49.573Z,35.01
2018-04-26T15:04:49.986Z,34.5
2018-04-26T15:05:49.624Z,35.04
2018-04-26T15:06:49.603Z,34.91
2018-04-26T15:07:49.683Z,34.77
2018-04-26T15:08:49.587Z,34.78
2018-04-26T15:09:49.696Z,35.16
2018-04-26T15:10:49.649Z,34.84
2018-04-26T15:11:49.616Z,35.11
2018-04-26T15:12:49.647Z,35.3
2018-04-26T15:13:49.612Z,35.3
2018-04-26T15:14:49.610Z,34.88
2018-04-26T15:15:49.567Z,34.96
2018-04-26T15:16:49.844Z,34.77
2018-04-26T15:17:49.578Z,35.08
2018-04-26T15:18:49.663Z,35.32
2018-04-26T15:19:49.787Z,35.03
2018-04-26T15:20:49.694Z,34.35
2018-04-26T15:21:49.669Z,34.19
2018-04-26T15:22:49.614Z,34.28
2018-04-26T15:23:49.680Z,34.71
2018-04-26T15:24:49.920Z,34.76
2018-04-26T15:25:49.611Z,34.78
2018-04-26T15:26:49.896Z,34.87
2018-04-26T15:27:49.598Z,34.89
2018-04-26T15:28:49.631Z,34.56
2018-04-26T15:29:49.959Z,35.17
2018-04-26T15:30:49.728Z,33.9
2018-04-26T15:31:49.846Z,34.73
2018-04-26T15:32:49.695Z,34.43
2018-04-26T15:33:49.882Z,34.92
2018-04-26T15:34:49.655Z,34.77
2018-04-26T15:35:50.478Z,34.9
2018-04-26T15:36:49.657Z,34.01
2018-04-26T15:37:49.610Z,34.63
2018-04-26T15:38:49.690Z,34.74
2018-04-26T15:39:49.603Z,34.25
2018-04-26T15:40:49.632Z,34.53
2018-04-26T15:41:49.771Z,34.84
2018-04-26T15:42:49.694Z,34.99
2018-04-26T15:43:49.621Z,34.25
2018-04-26T15:44:49.632Z,34.67
2018-04-26T15:45:50.151Z,34.96
2018-04-26T15:46:49.944Z,34.98
2018-04-26T15:47:49.698Z,35.24
2018-04-26T15:48:49.636Z,34.75
2018-04-26T15:49:49.761Z,35.17
2018-04-26T15:50:49.616Z,34.52
2018-04-26T15:51:50.001Z,34.06
2018-04-26T15:52:49.703Z,34.24
2018-04-26T15:53:49.684Z,34.43
2018-04-26T15:54:49.678Z,34.96
2018-04-26T15:55:49.613Z,34.47
2018-04-26T15:56:49.619Z,34.81
2018-04-26T15:57:49.643Z,34.1
2018-04-26T15:58:49.634Z,33.76
2018-04-26T15:59:49.584Z,34.48
2018-04-26T16:00:49.620Z,33.72
2018-04-26T16:01:50.064Z,34.07
2018-04-26T16:02:50.049Z,34.53
2018-04-26T16:03:49.642Z,33.31
2018-04-26T16:04:49.730Z,33.98
2018-04-26T16:05:49.869Z,33.06
2018-04-26T16:06:49.770Z,33.02
2018-04-26T16:07:49.638Z,33.49
2018-04-26T16:08:49.747Z,33.27
2018-04-26T16:09:49.604Z,32.63
2018-04-26T16:10:49.675Z,32.85
2018-04-26T16:11:49.706Z,33.06
2018-04-26T16:12:50.518Z,33.22
2018-04-26T16:13:49.972Z,33.93
2018-04-26T16:14:49.731Z,33.52
2018-04-26T16:15:49.612Z,33.59
2018-04-26T16:16:49.659Z,33.51
2018-04-26T16:17:50.047Z,33.51
2018-04-26T16:18:49.656Z,33.93
2018-04-26T16:19:49.859Z,33.75
2018-04-26T16:20:49.736Z,33.5
2018-04-26T16:21:49.772Z,33.76
2018-04-26T16:22:49.619Z,33.19
2018-04-26T16:23:49.960Z,33.74
2018-04-26T16:24:50.008Z,33.75
2018-04-26T16:25:49.703Z,33.64
2018-04-26T16:26:49.641Z,32.89
2018-04-26T16:27:49.763Z,33.83
2018-04-26T16:28:49.665Z,33.62
2018-04-26T16:29:49.634Z,33.52
2018-04-26T16:30:49.938Z,33.12
2018-04-26T16:31:49.950Z,33.43
2018-04-26T16:32:50.092Z,33.64
2018-04-26T16:33:50.061Z,33.52
2018-04-26T16:34:49.760Z,33.32
2018-04-26T16:35:49.730Z,33.15
2018-04-26T16:36:49.802Z,33.51
2018-04-26T16:37:49.650Z,33.37
2018-04-26T16:38:50.194Z,33.44
2018-04-26T16:39:49.716Z,33.68
2018-04-26T16:40:49.658Z,33.86
2018-04-26T16:41:49.692Z,33.77
2018-04-26T16:42:49.947Z,34.1
2018-04-26T16:43:50.082Z,34.02
2018-04-26T16:44:49.705Z,34.18
2018-04-26T16:45:49.662Z,33.75
2018-04-26T16:46:49.636Z,34
2018-04-26T16:47:49.716Z,34.57
2018-04-26T16:48:49.655Z,33.38
2018-04-26T16:49:49.864Z,33.23
2018-04-26T16:50:49.857Z,34.13
2018-04-26T16:51:49.740Z,33.38
2018-04-26T16:52:49.659Z,33.35
2018-04-26T16:53:49.699Z,33.46
2018-04-26T16:54:49.761Z,34.18
2018-04-26T16:55:50.222Z,33.96
2018-04-26T16:56:49.769Z,34.01
2018-04-26T16:57:49.698Z,34.62
2018-04-26T16:58:49.759Z,34.73
2018-04-26T16:59:50.019Z,34.34
2018-04-26T17:00:49.837Z,33.82
2018-04-26T17:01:49.805Z,34.49
2018-04-26T17:02:50.060Z,34.58
2018-04-26T17:03:49.766Z,34.04
2018-04-26T17:04:50.031Z,33.56
2018-04-26T17:05:50.081Z,34.06
2018-04-26T17:06:49.717Z,34.76
2018-04-26T17:07:49.716Z,34.7
2018-04-26T17:08:49.660Z,34.66
2018-04-26T17:09:49.711Z,34.43
2018-04-26T17:10:49.735Z,34.96
2018-04-26T17:11:50.132Z,35.25
2018-04-26T17:12:49.698Z,35.11
2018-04-26T17:13:50.227Z,35.07
2018-04-26T17:14:49.717Z,34.57
2018-04-26T17:15:50.255Z,33.92
2018-04-26T17:16:50.261Z,34.11
2018-04-26T17:17:49.665Z,34.37
2018-04-26T17:18:50.061Z,34.5
2018-04-26T17:19:49.715Z,34.61
2018-04-26T17:20:49.921Z,34.2
2018-04-26T17:21:52.127Z,34.39
2018-04-26T17:22:49.822Z,34.48
2018-04-26T17:23:49.736Z,34.94
2018-04-26T17:24:50.000Z,35.33
2018-04-26T17:25:50.220Z,34.9
2018-04-26T17:26:49.893Z,35.25
2018-04-26T17:27:49.858Z,34.8
2018-04-26T17:28:49.707Z,35.07
2018-04-26T17:29:50.004Z,34.49
2018-04-26T17:30:50.251Z,34.59
2018-04-26T17:31:49.785Z,34.53
2018-04-26T17:32:49.738Z,34.68
2018-04-26T17:33:49.664Z,34.84
2018-04-26T17:34:50.383Z,34.91
2018-04-26T17:35:49.918Z,35.13
2018-04-26T17:36:49.759Z,35.38
2018-04-26T17:40:15.167Z,35.86
2018-04-26T17:41:14.982Z,35.93
2018-04-26T17:42:15.199Z,35.99
2018-04-26T17:43:15.139Z,36.11
2018-04-26T17:44:14.932Z,36.33
2018-04-26T17:45:14.939Z,36.34
2018-04-26T17:46:15.641Z,36.23
2018-04-26T17:47:15.241Z,36.11
2018-04-26T17:48:16.198Z,36.28
2018-04-26T17:49:15.092Z,36.37
2018-04-26T17:50:14.941Z,36.52
2018-04-26T17:51:15.122Z,36.57
2018-04-26T17:52:15.275Z,36.58
2018-04-26T17:53:14.921Z,36.83
2018-04-26T17:54:15.001Z,36.76
2018-04-26T17:55:14.927Z,36.82
2018-04-26T17:56:15.061Z,36.87
2018-04-26T17:57:15.101Z,36.88
2018-04-26T17:58:15.100Z,36.93
2018-04-26T17:59:14.929Z,37.14
2018-04-26T18:00:15.333Z,37.21
2018-04-26T18:01:15.255Z,36.91
2018-04-26T18:02:15.184Z,37.17
2018-04-26T18:03:14.952Z,37.13
2018-04-26T18:04:14.900Z,37.3
2018-04-26T18:05:14.972Z,36.96
2018-04-26T18:06:15.147Z,37.36
2018-04-26T18:07:15.105Z,37.42
2018-04-26T18:08:15.074Z,37.3
2018-04-26T18:09:15.183Z,37.38
2018-04-26T18:10:14.923Z,37.61
2018-04-26T18:11:15.227Z,37.74
2018-04-26T18:12:15.102Z,37.71
2018-04-26T18:13:15.028Z,37.65
2018-04-26T18:14:15.273Z,37.71
2018-04-26T18:15:15.746Z,37.83
2018-04-26T18:16:15.031Z,37.63
2018-04-26T18:17:14.936Z,37.82
2018-04-26T18:18:15.199Z,37.81
2018-04-26T18:19:15.030Z,37.55
2018-04-26T18:20:16.422Z,37.83
2018-04-26T18:21:15.266Z,37.94
2018-04-26T18:22:14.991Z,38.07
2018-04-26T18:23:15.278Z,38.28
2018-04-26T18:24:14.935Z,38.57
2018-04-26T18:25:15.193Z,38.8
2018-04-26T18:26:15.252Z,38.96
2018-04-26T18:27:15.644Z,39.02
2018-04-26T18:28:14.929Z,39.1
2018-04-26T18:29:14.931Z,39.11
2018-04-26T18:30:15.018Z,39.2
2018-04-26T18:31:15.337Z,39.27
2018-04-26T18:32:15.483Z,39.42
2018-04-26T18:33:14.976Z,39.49
2018-04-26T18:34:16.963Z,39.56
2018-04-26T18:35:15.204Z,39.75
2018-04-26T18:36:16.087Z,39.67
2018-04-26T18:37:14.925Z,39.62
2018-04-26T18:38:15.183Z,39.65
2018-04-26T18:39:15.291Z,39.8
2018-04-26T18:40:15.133Z,39.96
2018-04-26T18:41:15.134Z,40.16
2018-04-26T18:42:15.103Z,40.29
2018-04-26T18:43:15.337Z,40.29
2018-04-26T18:44:14.952Z,40.36
2018-04-26T18:45:15.136Z,40.47
2018-04-26T18:46:15.068Z,40.43
2018-04-26T18:47:15.181Z,40.4
2018-04-26T18:48:14.975Z,40.51
2018-04-26T18:49:15.109Z,40.6
2018-04-26T18:50:15.056Z,40.76
2018-04-26T18:51:15.044Z,41.3
2018-04-26T18:52:15.505Z,41.42
2018-04-26T18:53:16.411Z,41.54
2018-04-26T18:54:14.947Z,41.66
2018-04-26T18:55:14.938Z,41.97
2018-04-26T18:56:15.327Z,42.17
2018-04-26T18:57:15.616Z,41.95
2018-04-26T18:58:15.834Z,42.15
2018-04-26T18:59:15.087Z,42.23
2018-04-26T19:00:14.917Z,42.31
2018-04-26T19:01:15.340Z,42.77
2018-04-26T19:02:14.913Z,42.62
2018-04-26T19:03:15.251Z,42.91
2018-04-26T19:04:14.978Z,42.99
2018-04-26T19:05:15.008Z,42.96
2018-04-26T19:06:14.932Z,43.22
2018-04-26T19:07:15.035Z,43.55
2018-04-26T19:08:15.184Z,43.38
2018-04-26T19:09:14.921Z,43.95
2018-04-26T19:10:15.141Z,44.03
2018-04-26T19:11:15.021Z,43.93
2018-04-26T19:12:15.107Z,43.93
2018-04-26T19:13:15.002Z,43.97